Brough, United Kingdom
Current Conditions -  °F | °C
As of 7:20 PM on Sunday 21 Dec 2014 (Local Time) from EGNJ Reporting Station
Broken Clouds Broken Clouds  
Wind Chill: 54°   Ceiling: 2800
Heat Index: 54°   Visibility: 6mi
Dew Point: 48°   Wind: 29mph
Humidity: 82%   Direction: 210°SSW
Pressure: 29.91"   Gusts: NA
Location:  53.7°N, 0.58°W
Report Text: EGNJ 211920Z 21025KT 9999 BKN028 12/09 Q1013
Loading
Personal Weather Stations






























Interactive Weather Map New forecast layout! Learn more

10-Day Weather Forecast

Advertisements
Track Severe Weather on mobile